METAR Data

Data at: 2129 UTC 01 Dec 2021

METAR for:KUUU (Newport State Arpt, RI, US)
Text:KUUU 012053Z AUTO 00000KT 10SM CLR 07/M03 A3011 RMK AO2 SLP196 T00671033 50006
Temperature: 6.7°C ( 44°F)
Dewpoint: -3.3°C ( 26°F) [RH = 49%]
Pressure (altimeter):30.11 inches Hg (1019.7 mb) [Sea level pressure: 1019.6 mb]
Winds:calm
Visibility:10 or more sm (16+ km)
Ceiling:at least 12,000 feet AGL
Clouds:sky clear below 12,000 feet AGL
QC Flag:automated observation with no human augmentation